sensor_id;sensor_type;location;lat;lon;timestamp;pressure;altitude;pressure_sealevel;temperature;humidity
69624;BME280;56843;52.020;5.670;2023-05-19T00:00:52;102549.16;;;11.82;55.88
69624;BME280;56843;52.020;5.670;2023-05-19T00:02:27;102548.66;;;11.80;55.92
69624;BME280;56843;52.020;5.670;2023-05-19T00:04:02;102550.03;;;11.77;56.02
69624;BME280;56843;52.020;5.670;2023-05-19T00:05:35;102549.53;;;11.75;56.12
69624;BME280;56843;52.020;5.670;2023-05-19T00:07:10;102549.03;;;11.73;56.14
69624;BME280;56843;52.020;5.670;2023-05-19T00:08:40;102541.28;;;11.72;56.47
69624;BME280;56843;52.020;5.670;2023-05-19T00:10:11;102547.72;;;11.71;56.54
69624;BME280;56843;52.020;5.670;2023-05-19T00:11:42;102541.84;;;11.69;56.30
69624;BME280;56843;52.020;5.670;2023-05-19T00:13:13;102552.84;;;11.67;56.33
69624;BME280;56843;52.020;5.670;2023-05-19T00:14:44;102549.38;;;11.67;56.62
69624;BME280;56843;52.020;5.670;2023-05-19T00:16:14;102542.44;;;11.66;56.50
69624;BME280;56843;52.020;5.670;2023-05-19T00:17:45;102543.81;;;11.63;56.46
69624;BME280;56843;52.020;5.670;2023-05-19T00:19:15;102539.25;;;11.64;56.78
69624;BME280;56843;52.020;5.670;2023-05-19T00:20:46;102546.78;;;11.62;56.42
69624;BME280;56843;52.020;5.670;2023-05-19T00:22:17;102528.31;;;11.60;56.54
69624;BME280;56843;52.020;5.670;2023-05-19T00:23:47;102536.63;;;11.59;56.82
69624;BME280;56843;52.020;5.670;2023-05-19T00:25:18;102535.84;;;11.58;56.93
69624;BME280;56843;52.020;5.670;2023-05-19T00:26:49;102536.13;;;11.57;57.07
69624;BME280;56843;52.020;5.670;2023-05-19T00:28:19;102536.41;;;11.55;56.66
69624;BME280;56843;52.020;5.670;2023-05-19T00:29:50;102533.72;;;11.55;56.90
69624;BME280;56843;52.020;5.670;2023-05-19T00:31:21;102524.91;;;11.55;56.82
69624;BME280;56843;52.020;5.670;2023-05-19T00:32:51;102529.44;;;11.54;56.80
69624;BME280;56843;52.020;5.670;2023-05-19T00:34:22;102521.41;;;11.54;56.81
69624;BME280;56843;52.020;5.670;2023-05-19T00:35:52;102527.59;;;11.55;57.11
69624;BME280;56843;52.020;5.670;2023-05-19T00:37:23;102527.59;;;11.55;57.15
69624;BME280;56843;52.020;5.670;2023-05-19T00:38:54;102525.69;;;11.55;57.01
69624;BME280;56843;52.020;5.670;2023-05-19T00:40:24;102532.13;;;11.54;56.96
69624;BME280;56843;52.020;5.670;2023-05-19T00:41:56;102518.22;;;11.52;57.04
69624;BME280;56843;52.020;5.670;2023-05-19T00:43:27;102518.22;;;11.52;57.19
69624;BME280;56843;52.020;5.670;2023-05-19T00:44:59;102528.13;;;11.52;57.00
69624;BME280;56843;52.020;5.670;2023-05-19T00:46:29;102529.22;;;11.51;57.19
69624;BME280;56843;52.020;5.670;2023-05-19T00:48:00;102521.47;;;11.49;57.19
69624;BME280;56843;52.020;5.670;2023-05-19T00:49:30;102526.31;;;11.47;57.08
69624;BME280;56843;52.020;5.670;2023-05-19T00:51:02;102522.63;;;11.43;57.28
69624;BME280;56843;52.020;5.670;2023-05-19T00:52:35;102515.66;;;11.42;57.42
69624;BME280;56843;52.020;5.670;2023-05-19T00:54:06;102525.59;;;11.42;57.35
69624;BME280;56843;52.020;5.670;2023-05-19T00:55:37;102526.94;;;11.39;57.66
69624;BME280;56843;52.020;5.670;2023-05-19T00:57:10;102519.19;;;11.38;57.36
69624;BME280;56843;52.020;5.670;2023-05-19T00:58:41;102519.78;;;11.35;57.58
69624;BME280;56843;52.020;5.670;2023-05-19T01:02:06;102519.53;;;11.31;57.66
69624;BME280;56843;52.020;5.670;2023-05-19T01:03:37;102526.84;;;11.26;57.98
69624;BME280;56843;52.020;5.670;2023-05-19T01:05:09;102522.56;;;11.25;57.82
69624;BME280;56843;52.020;5.670;2023-05-19T01:06:40;102528.19;;;11.23;58.25
69624;BME280;56843;52.020;5.670;2023-05-19T01:08:11;102528.50;;;11.22;57.88
69624;BME280;56843;52.020;5.670;2023-05-19T01:09:41;102519.97;;;11.20;58.08
69624;BME280;56843;52.020;5.670;2023-05-19T01:11:12;102529.34;;;11.17;58.05
69624;BME280;56843;52.020;5.670;2023-05-19T01:12:42;102524.25;;;11.16;58.50
69624;BME280;56843;52.020;5.670;2023-05-19T01:14:13;102521.88;;;11.14;58.33
69624;BME280;56843;52.020;5.670;2023-05-19T01:16:03;102526.16;;;11.15;58.32
69624;BME280;56843;52.020;5.670;2023-05-19T01:17:50;102522.47;;;11.11;58.21
69624;BME280;56843;52.020;5.670;2023-05-19T01:23:39;102530.25;;;11.07;58.52
69624;BME280;56843;52.020;5.670;2023-05-19T01:31:41;102529.31;;;10.93;58.59
69624;BME280;56843;52.020;5.670;2023-05-19T01:33:12;102528.25;;;10.94;58.67
69624;BME280;56843;52.020;5.670;2023-05-19T01:34:45;102524.50;;;10.95;58.76
69624;BME280;56843;52.020;5.670;2023-05-19T01:36:22;102523.19;;;10.93;58.99
69624;BME280;56843;52.020;5.670;2023-05-19T01:37:55;102529.31;;;10.93;58.88
69624;BME280;56843;52.020;5.670;2023-05-19T01:39:27;102521.56;;;10.92;59.06
69624;BME280;56843;52.020;5.670;2023-05-19T01:40:58;102524.75;;;10.94;59.10
69624;BME280;56843;52.020;5.670;2023-05-19T01:42:29;102522.38;;;10.92;59.16
69624;BME280;56843;52.020;5.670;2023-05-19T01:44:08;102528.53;;;10.93;59.08
69624;BME280;56843;52.020;5.670;2023-05-19T01:45:39;102520.78;;;10.91;58.94
69624;BME280;56843;52.020;5.670;2023-05-19T01:47:10;102514.38;;;10.92;59.00
69624;BME280;56843;52.020;5.670;2023-05-19T01:48:42;102514.38;;;10.92;59.08
69624;BME280;56843;52.020;5.670;2023-05-19T01:50:14;102508.50;;;10.90;59.05
69624;BME280;56843;52.020;5.670;2023-05-19T01:51:44;102508.22;;;10.92;59.04
69624;BME280;56843;52.020;5.670;2023-05-19T01:53:15;102509.31;;;10.91;59.43
69624;BME280;56843;52.020;5.670;2023-05-19T01:54:45;102506.34;;;10.92;59.09
69624;BME280;56843;52.020;5.670;2023-05-19T01:56:37;102504.97;;;10.95;59.04
69624;BME280;56843;52.020;5.670;2023-05-19T01:58:19;102502.88;;;10.92;58.94
69624;BME280;56843;52.020;5.670;2023-05-19T02:01:47;102503.97;;;10.91;59.39
69624;BME280;56843;52.020;5.670;2023-05-19T02:05:28;102508.25;;;10.87;59.56
69624;BME280;56843;52.020;5.670;2023-05-19T02:07:30;102502.69;;;10.83;59.29
69624;BME280;56843;52.020;5.670;2023-05-19T02:11:03;102499.00;;;10.79;59.43
69624;BME280;56843;52.020;5.670;2023-05-19T02:12:37;102503.53;;;10.79;59.77
69624;BME280;56843;52.020;5.670;2023-05-19T02:14:17;102498.19;;;10.79;59.60
69624;BME280;56843;52.020;5.670;2023-05-19T02:15:51;102492.34;;;10.77;59.83
69624;BME280;56843;52.020;5.670;2023-05-19T02:17:26;102499.28;;;10.78;59.68
69624;BME280;56843;52.020;5.670;2023-05-19T02:18:58;102504.63;;;10.78;59.62
69624;BME280;56843;52.020;5.670;2023-05-19T02:20:29;102498.19;;;10.79;59.68
69624;BME280;56843;52.020;5.670;2023-05-19T02:22:00;102500.88;;;10.79;59.68
69624;BME280;56843;52.020;5.670;2023-05-19T02:23:30;102501.16;;;10.77;59.90
69624;BME280;56843;52.020;5.670;2023-05-19T02:25:01;102506.00;;;10.75;59.87
69624;BME280;56843;52.020;5.670;2023-05-19T02:26:31;102506.00;;;10.75;59.70
69624;BME280;56843;52.020;5.670;2023-05-19T02:28:02;102498.53;;;10.72;59.94
69624;BME280;56843;52.020;5.670;2023-05-19T02:29:33;102485.97;;;10.73;59.82
69624;BME280;56843;52.020;5.670;2023-05-19T02:31:03;102487.31;;;10.70;59.96
69624;BME280;56843;52.020;5.670;2023-05-19T02:32:37;102494.53;;;10.70;60.09
69624;BME280;56843;52.020;5.670;2023-05-19T02:34:08;102500.16;;;10.68;60.04
69624;BME280;56843;52.020;5.670;2023-05-19T02:35:40;102491.63;;;10.66;60.35
69624;BME280;56843;52.020;5.670;2023-05-19T02:37:12;102492.44;;;10.67;60.26
69624;BME280;56843;52.020;5.670;2023-05-19T02:38:43;102488.97;;;10.66;59.59
69624;BME280;56843;52.020;5.670;2023-05-19T02:40:14;102487.38;;;10.65;60.28
69624;BME280;56843;52.020;5.670;2023-05-19T02:41:44;102490.31;;;10.64;60.21
69624;BME280;56843;52.020;5.670;2023-05-19T02:43:15;102485.28;;;10.62;60.35
69624;BME280;56843;52.020;5.670;2023-05-19T02:44:45;102476.44;;;10.62;60.35
69624;BME280;56843;52.020;5.670;2023-05-19T02:46:16;102482.06;;;10.60;60.41
69624;BME280;56843;52.020;5.670;2023-05-19T02:47:46;102485.28;;;10.62;60.59
69624;BME280;56843;52.020;5.670;2023-05-19T02:49:16;102479.38;;;10.60;60.62
69624;BME280;56843;52.020;5.670;2023-05-19T02:50:47;102475.13;;;10.59;60.38
69624;BME280;56843;52.020;5.670;2023-05-19T02:52:18;102477.81;;;10.59;60.52
69624;BME280;56843;52.020;5.670;2023-05-19T02:53:48;102475.13;;;10.59;60.46
69624;BME280;56843;52.020;5.670;2023-05-19T02:55:19;102478.63;;;10.60;60.62
69624;BME280;56843;52.020;5.670;2023-05-19T02:56:50;102478.09;;;10.58;60.84
69624;BME280;56843;52.020;5.670;2023-05-19T02:58:20;102476.50;;;10.57;60.61
69624;BME280;56843;52.020;5.670;2023-05-19T02:59:51;102475.97;;;10.55;60.88
69624;BME280;56843;52.020;5.670;2023-05-19T03:01:21;102474.91;;;10.56;60.48
69624;BME280;56843;52.020;5.670;2023-05-19T03:02:52;102471.44;;;10.55;60.99
69624;BME280;56843;52.020;5.670;2023-05-19T03:04:23;102477.03;;;10.54;61.01
69624;BME280;56843;52.020;5.670;2023-05-19T03:05:54;102475.19;;;10.54;61.05
69624;BME280;56843;52.020;5.670;2023-05-19T03:07:24;102475.19;;;10.54;61.16
69624;BME280;56843;52.020;5.670;2023-05-19T03:08:55;102470.94;;;10.53;61.12
69624;BME280;56843;52.020;5.670;2023-05-19T03:10:26;102469.31;;;10.52;61.02
69624;BME280;56843;52.020;5.670;2023-05-19T03:11:57;102470.41;;;10.51;61.19
69624;BME280;56843;52.020;5.670;2023-05-19T03:13:33;102474.44;;;10.49;61.29
69624;BME280;56843;52.020;5.670;2023-05-19T03:15:04;102476.03;;;10.50;61.31
69624;BME280;56843;52.020;5.670;2023-05-19T03:16:35;102469.91;;;10.49;61.31
69624;BME280;56843;52.020;5.670;2023-05-19T03:18:05;102476.31;;;10.48;61.22
69624;BME280;56843;52.020;5.670;2023-05-19T03:19:36;102465.63;;;10.48;61.12
69624;BME280;56843;52.020;5.670;2023-05-19T03:21:06;102466.16;;;10.45;61.32
69624;BME280;56843;52.020;5.670;2023-05-19T03:22:36;102464.31;;;10.46;61.49
69624;BME280;56843;52.020;5.670;2023-05-19T03:24:07;102470.44;;;10.46;61.49
69624;BME280;56843;52.020;5.670;2023-05-19T03:25:38;102467.78;;;10.46;61.43
69624;BME280;56843;52.020;5.670;2023-05-19T03:27:08;102470.44;;;10.46;61.55
69624;BME280;56843;52.020;5.670;2023-05-19T03:28:38;102466.16;;;10.45;61.49
69624;BME280;56843;52.020;5.670;2023-05-19T03:30:09;102468.84;;;10.45;61.51
69624;BME280;56843;52.020;5.670;2023-05-19T03:31:51;102469.13;;;10.44;61.54
69624;BME280;56843;52.020;5.670;2023-05-19T03:33:22;102461.44;;;10.37;61.73
69624;BME280;56843;52.020;5.670;2023-05-19T03:34:53;102469.94;;;10.44;61.64
69624;BME280;56843;52.020;5.670;2023-05-19T03:36:24;102474.47;;;10.44;62.04
69624;BME280;56843;52.020;5.670;2023-05-19T03:37:55;102471.28;;;10.42;61.94
69624;BME280;56843;52.020;5.670;2023-05-19T03:39:25;102465.66;;;10.43;61.93
69624;BME280;56843;52.020;5.670;2023-05-19T03:40:56;102471.00;;;10.43;61.80
69624;BME280;56843;52.020;5.670;2023-05-19T03:42:27;102476.09;;;10.45;61.90
69624;BME280;56843;52.020;5.670;2023-05-19T03:43:57;102468.06;;;10.45;62.04
69624;BME280;56843;52.020;5.670;2023-05-19T03:45:28;102480.63;;;10.44;61.79
69624;BME280;56843;52.020;5.670;2023-05-19T03:46:58;102466.47;;;10.44;61.93
69624;BME280;56843;52.020;5.670;2023-05-19T03:48:47;102473.16;;;10.41;62.07
69624;BME280;56843;52.020;5.670;2023-05-19T03:50:41;102469.97;;;10.39;62.12
69624;BME280;56843;52.020;5.670;2023-05-19T03:52:21;102478.22;;;10.43;62.04
69624;BME280;56843;52.020;5.670;2023-05-19T03:53:59;102472.59;;;10.44;61.94
69624;BME280;56843;52.020;5.670;2023-05-19T03:55:29;102478.47;;;10.46;62.01
69624;BME280;56843;52.020;5.670;2023-05-19T03:57:00;102473.13;;;10.46;62.06
69624;BME280;56843;52.020;5.670;2023-05-19T03:58:31;102482.72;;;10.47;62.11
69624;BME280;56843;52.020;5.670;2023-05-19T04:00:03;102484.31;;;10.48;62.10
69624;BME280;56843;52.020;5.670;2023-05-19T04:01:42;102474.69;;;10.47;62.05
69624;BME280;56843;52.020;5.670;2023-05-19T04:03:13;102469.91;;;10.49;62.25
69624;BME280;56843;52.020;5.670;2023-05-19T04:04:44;102476.03;;;10.50;62.22
69624;BME280;56843;52.020;5.670;2023-05-19T04:06:15;102465.63;;;10.48;62.15
69624;BME280;56843;52.020;5.670;2023-05-19T04:07:45;102472.28;;;10.51;62.14
69624;BME280;56843;52.020;5.670;2023-05-19T04:09:15;102468.81;;;10.50;62.18
69624;BME280;56843;52.020;5.670;2023-05-19T04:10:46;102469.63;;;10.51;62.19
69624;BME280;56843;52.020;5.670;2023-05-19T04:12:18;102473.09;;;10.51;62.03
69624;BME280;56843;52.020;5.670;2023-05-19T04:13:49;102478.94;;;10.53;62.14
69624;BME280;56843;52.020;5.670;2023-05-19T04:15:19;102482.63;;;10.57;62.18
69624;BME280;56843;52.020;5.670;2023-05-19T04:16:50;102478.88;;;10.58;62.13
69624;BME280;56843;52.020;5.670;2023-05-19T04:18:21;102480.19;;;10.61;62.32
69624;BME280;56843;52.020;5.670;2023-05-19T04:19:52;102482.06;;;10.60;62.19
69624;BME280;56843;52.020;5.670;2023-05-19T04:21:23;102485.53;;;10.61;62.04
69624;BME280;56843;52.020;5.670;2023-05-19T04:22:53;102472.19;;;10.61;62.19
69624;BME280;56843;52.020;5.670;2023-05-19T04:24:24;102482.06;;;10.60;62.26
69624;BME280;56843;52.020;5.670;2023-05-19T04:25:55;102489.28;;;10.60;62.17
69624;BME280;56843;52.020;5.670;2023-05-19T04:27:27;102477.53;;;10.61;62.08
69624;BME280;56843;52.020;5.670;2023-05-19T04:28:59;102480.69;;;10.63;62.29
69624;BME280;56843;52.020;5.670;2023-05-19T04:30:33;102479.94;;;10.62;62.18
69624;BME280;56843;52.020;5.670;2023-05-19T04:32:04;102476.44;;;10.62;62.04
69624;BME280;56843;52.020;5.670;2023-05-19T04:33:39;102476.97;;;10.64;62.22
69624;BME280;56843;52.020;5.670;2023-05-19T04:35:10;102482.31;;;10.64;62.33
69624;BME280;56843;52.020;5.670;2023-05-19T04:36:43;102470.81;;;10.63;62.35
69624;BME280;56843;52.020;5.670;2023-05-19T04:38:14;102479.63;;;10.64;62.18
69624;BME280;56843;52.020;5.670;2023-05-19T04:39:48;102473.19;;;10.65;62.29
69624;BME280;56843;52.020;5.670;2023-05-19T04:41:19;102472.94;;;10.66;62.14
69624;BME280;56843;52.020;5.670;2023-05-19T04:42:51;102476.69;;;10.65;62.27
69624;BME280;56843;52.020;5.670;2023-05-19T04:44:22;102473.75;;;10.67;62.17
69624;BME280;56843;52.020;5.670;2023-05-19T04:45:54;102471.63;;;10.64;62.02
69624;BME280;56843;52.020;5.670;2023-05-19T04:47:27;102480.94;;;10.66;62.09
69624;BME280;56843;52.020;5.670;2023-05-19T04:48:59;102479.84;;;10.67;62.39
69624;BME280;56843;52.020;5.670;2023-05-19T04:50:32;102472.94;;;10.66;62.19
69624;BME280;56843;52.020;5.670;2023-05-19T04:52:06;102479.84;;;10.67;62.09
69624;BME280;56843;52.020;5.670;2023-05-19T04:53:36;102478.78;;;10.68;62.15
69624;BME280;56843;52.020;5.670;2023-05-19T04:55:11;102470.25;;;10.66;62.33
69624;BME280;56843;52.020;5.670;2023-05-19T04:56:42;102478.00;;;10.68;62.09
69624;BME280;56843;52.020;5.670;2023-05-19T04:58:13;102479.31;;;10.70;61.98
69624;BME280;56843;52.020;5.670;2023-05-19T04:59:43;102477.44;;;10.71;62.15
69624;BME280;56843;52.020;5.670;2023-05-19T05:01:15;102479.31;;;10.70;61.90
69624;BME280;56843;52.020;5.670;2023-05-19T05:02:46;102485.16;;;10.72;62.21
69624;BME280;56843;52.020;5.670;2023-05-19T05:04:18;102481.19;;;10.70;62.15
69624;BME280;56843;52.020;5.670;2023-05-19T05:05:48;102490.22;;;10.74;62.01
69624;BME280;56843;52.020;5.670;2023-05-19T05:07:19;102487.53;;;10.74;62.13
69624;BME280;56843;52.020;5.670;2023-05-19T05:08:54;102487.28;;;10.75;62.10
69624;BME280;56843;52.020;5.670;2023-05-19T05:10:26;102489.94;;;10.75;62.15
69624;BME280;56843;52.020;5.670;2023-05-19T05:11:57;102496.06;;;10.76;61.96
69624;BME280;56843;52.020;5.670;2023-05-19T05:13:28;102490.16;;;10.79;62.07
69624;BME280;56843;52.020;5.670;2023-05-19T05:14:59;102491.19;;;10.83;62.03
69624;BME280;56843;52.020;5.670;2023-05-19T05:16:32;102496.28;;;10.84;61.94
69624;BME280;56843;52.020;5.670;2023-05-19T05:18:03;102483.44;;;10.86;61.73
69624;BME280;56843;52.020;5.670;2023-05-19T05:19:34;102490.09;;;10.89;61.91
69624;BME280;56843;52.020;5.670;2023-05-19T05:21:05;102491.38;;;10.91;61.57
69624;BME280;56843;52.020;5.670;2023-05-19T05:22:38;102492.69;;;10.94;61.86
69624;BME280;56843;52.020;5.670;2023-05-19T05:24:10;102490.25;;;10.97;61.65
69624;BME280;56843;52.020;5.670;2023-05-19T05:25:41;102497.69;;;11.00;61.79
69624;BME280;56843;52.020;5.670;2023-05-19T05:27:12;102493.66;;;11.03;61.44
69624;BME280;56843;52.020;5.670;2023-05-19T05:28:44;102495.78;;;11.06;61.63
69624;BME280;56843;52.020;5.670;2023-05-19T05:30:14;102493.63;;;11.08;61.53
69624;BME280;56843;52.020;5.670;2023-05-19T05:31:45;102501.59;;;11.13;61.59
69624;BME280;56843;52.020;5.670;2023-05-19T05:33:16;102502.09;;;11.15;61.47
69624;BME280;56843;52.020;5.670;2023-05-19T05:34:47;102491.91;;;11.17;61.09
69624;BME280;56843;52.020;5.670;2023-05-19T05:36:18;102495.09;;;11.19;61.15
69624;BME280;56843;52.020;5.670;2023-05-19T05:37:49;102497.97;;;11.23;61.31
69624;BME280;56843;52.020;5.670;2023-05-19T05:39:19;102507.81;;;11.27;61.17
69624;BME280;56843;52.020;5.670;2023-05-19T05:40:50;102497.38;;;11.31;60.95
69624;BME280;56843;52.020;5.670;2023-05-19T05:42:20;102496.00;;;11.33;61.14
69624;BME280;56843;52.020;5.670;2023-05-19T05:43:52;102501.00;;;11.40;61.12
69624;BME280;56843;52.020;5.670;2023-05-19T05:45:22;102495.88;;;11.43;60.99
69624;BME280;56843;52.020;5.670;2023-05-19T05:46:54;102492.63;;;11.46;60.99
69624;BME280;56843;52.020;5.670;2023-05-19T05:48:25;102494.44;;;11.51;60.68
69624;BME280;56843;52.020;5.670;2023-05-19T05:49:56;102489.03;;;11.56;60.77
69624;BME280;56843;52.020;5.670;2023-05-19T05:51:27;102488.47;;;11.59;60.62
69624;BME280;56843;52.020;5.670;2023-05-19T05:52:59;102491.28;;;11.67;60.73
69624;BME280;56843;52.020;5.670;2023-05-19T05:54:30;102486.16;;;11.71;60.53
69624;BME280;56843;52.020;5.670;2023-05-19T05:56:01;102482.03;;;11.78;60.59
69624;BME280;56843;52.020;5.670;2023-05-19T05:57:40;102486.72;;;11.87;60.37
69624;BME280;56843;52.020;5.670;2023-05-19T05:59:11;102480.44;;;11.96;60.06
69624;BME280;56843;52.020;5.670;2023-05-19T06:00:42;102484.56;;;12.07;59.85
69624;BME280;56843;52.020;5.670;2023-05-19T06:02:12;102490.03;;;12.16;59.64
69624;BME280;56843;52.020;5.670;2023-05-19T06:03:43;102483.75;;;12.25;59.54
69624;BME280;56843;52.020;5.670;2023-05-19T06:05:17;102483.50;;;12.40;59.25
69624;BME280;56843;52.020;5.670;2023-05-19T06:06:48;102491.25;;;12.55;58.66
69624;BME280;56843;52.020;5.670;2023-05-19T06:08:25;102493.66;;;12.71;58.43
69624;BME280;56843;52.020;5.670;2023-05-19T06:09:55;102492.03;;;12.88;58.20
69624;BME280;56843;52.020;5.670;2023-05-19T06:11:26;102500.59;;;13.04;58.01
69624;BME280;56843;52.020;5.670;2023-05-19T06:12:59;102499.22;;;13.20;57.69
69624;BME280;56843;52.020;5.670;2023-05-19T06:14:30;102494.66;;;13.34;57.74
69624;BME280;56843;52.020;5.670;2023-05-19T06:16:19;102492.63;;;13.53;57.01
69624;BME280;56843;52.020;5.670;2023-05-19T06:17:51;102499.25;;;13.69;57.12
69624;BME280;56843;52.020;5.670;2023-05-19T06:19:22;102494.13;;;13.81;56.82
69624;BME280;56843;52.020;5.670;2023-05-19T06:20:54;102494.13;;;13.95;56.54
69624;BME280;56843;52.020;5.670;2023-05-19T06:22:25;102487.00;;;14.13;56.50
69624;BME280;56843;52.020;5.670;2023-05-19T06:23:57;102498.84;;;14.34;55.92
69624;BME280;56843;52.020;5.670;2023-05-19T06:25:27;102495.34;;;14.55;55.68
69624;BME280;56843;52.020;5.670;2023-05-19T06:27:00;102490.53;;;14.74;55.48
69624;BME280;56843;52.020;5.670;2023-05-19T06:28:32;102489.66;;;14.96;54.80
69624;BME280;56843;52.020;5.670;2023-05-19T06:30:03;102497.53;;;15.15;54.67
69624;BME280;56843;52.020;5.670;2023-05-19T06:31:39;102495.84;;;15.36;53.95
69624;BME280;56843;52.020;5.670;2023-05-19T06:33:13;102496.38;;;15.55;53.83
69624;BME280;56843;52.020;5.670;2023-05-19T06:34:44;102488.31;;;15.72;53.42
69624;BME280;56843;52.020;5.670;2023-05-19T06:36:15;102493.53;;;15.86;53.04
69624;BME280;56843;52.020;5.670;2023-05-19T06:37:47;102487.69;;;16.01;52.59
69624;BME280;56843;52.020;5.670;2023-05-19T06:39:17;102488.00;;;16.16;52.55
69624;BME280;56843;52.020;5.670;2023-05-19T06:40:48;102489.09;;;16.33;52.24
69624;BME280;56843;52.020;5.670;2023-05-19T06:42:19;102497.47;;;16.48;51.86
69624;BME280;56843;52.020;5.670;2023-05-19T06:44:10;102497.09;;;16.67;51.41
69624;BME280;56843;52.020;5.670;2023-05-19T06:45:40;102490.06;;;16.83;51.38
69624;BME280;56843;52.020;5.670;2023-05-19T06:47:11;102493.50;;;17.01;51.03
69624;BME280;56843;52.020;5.670;2023-05-19T06:48:42;102490.13;;;17.12;50.75
69624;BME280;56843;52.020;5.670;2023-05-19T06:50:13;102501.47;;;17.26;50.38
69624;BME280;56843;52.020;5.670;2023-05-19T06:51:45;102486.47;;;17.37;50.08
69624;BME280;56843;52.020;5.670;2023-05-19T06:53:18;102491.31;;;17.52;49.68
69624;BME280;56843;52.020;5.670;2023-05-19T06:54:49;102496.94;;;17.68;49.74
69624;BME280;56843;52.020;5.670;2023-05-19T06:56:20;102501.72;;;17.83;49.43
69624;BME280;56843;52.020;5.670;2023-05-19T06:57:50;102495.41;;;18.00;48.77
69624;BME280;56843;52.020;5.670;2023-05-19T06:59:23;102492.22;;;18.18;48.47
69624;BME280;56843;52.020;5.670;2023-05-19T07:00:54;102503.66;;;18.36;48.26
69624;BME280;56843;52.020;5.670;2023-05-19T07:02:25;102500.78;;;18.53;47.78
69624;BME280;56843;52.020;5.670;2023-05-19T07:03:56;102508.13;;;18.65;47.40
69624;BME280;56843;52.020;5.670;2023-05-19T07:05:27;102504.91;;;18.71;47.40
69624;BME280;56843;52.020;5.670;2023-05-19T07:07:01;102502.75;;;18.77;46.74
69624;BME280;56843;52.020;5.670;2023-05-19T07:08:32;102500.28;;;18.84;46.24
69624;BME280;56843;52.020;5.670;2023-05-19T07:10:06;102492.84;;;18.93;45.56
69624;BME280;56843;52.020;5.670;2023-05-19T07:11:37;102499.38;;;19.04;45.52
69624;BME280;56843;52.020;5.670;2023-05-19T07:13:08;102500.66;;;19.19;45.39
69624;BME280;56843;52.020;5.670;2023-05-19T07:14:39;102497.25;;;19.34;45.08
69624;BME280;56843;52.020;5.670;2023-05-19T07:16:10;102503.06;;;19.48;44.54
69624;BME280;56843;52.020;5.670;2023-05-19T07:17:40;102503.88;;;19.60;44.46
69624;BME280;56843;52.020;5.670;2023-05-19T07:19:11;102507.69;;;19.71;44.44
69624;BME280;56843;52.020;5.670;2023-05-19T07:20:42;102499.44;;;19.80;44.25
69624;BME280;56843;52.020;5.670;2023-05-19T07:22:13;102503.13;;;19.88;43.82
69624;BME280;56843;52.020;5.670;2023-05-19T07:23:44;102498.13;;;19.90;44.16
69624;BME280;56843;52.020;5.670;2023-05-19T07:25:15;102501.78;;;19.82;44.16
69624;BME280;56843;52.020;5.670;2023-05-19T07:26:45;102502.28;;;19.71;44.32
69624;BME280;56843;52.020;5.670;2023-05-19T07:28:16;102497.31;;;19.61;44.08
69624;BME280;56843;52.020;5.670;2023-05-19T07:29:46;102503.19;;;19.51;44.17
69624;BME280;56843;52.020;5.670;2023-05-19T07:31:17;102504.44;;;19.42;44.40
69624;BME280;56843;52.020;5.670;2023-05-19T07:32:47;102503.78;;;19.33;44.38
69624;BME280;56843;52.020;5.670;2023-05-19T07:34:21;102495.78;;;19.24;44.32
69624;BME280;56843;52.020;5.670;2023-05-19T07:35:52;102499.06;;;19.18;44.52
69624;BME280;56843;52.020;5.670;2023-05-19T07:37:22;102497.25;;;19.10;44.71
69624;BME280;56843;52.020;5.670;2023-05-19T07:38:53;102500.19;;;19.04;44.72
69624;BME280;56843;52.020;5.670;2023-05-19T07:40:23;102501.19;;;19.00;44.82
69624;BME280;56843;52.020;5.670;2023-05-19T07:41:54;102498.25;;;18.93;45.23
69624;BME280;56843;52.020;5.670;2023-05-19T07:43:25;102501.19;;;18.88;45.16
69624;BME280;56843;52.020;5.670;2023-05-19T07:44:55;102503.00;;;18.84;45.36
69624;BME280;56843;52.020;5.670;2023-05-19T07:46:26;102498.94;;;18.78;45.31
69624;BME280;56843;52.020;5.670;2023-05-19T07:47:56;102496.44;;;18.73;45.48
69624;BME280;56843;52.020;5.670;2023-05-19T07:49:27;102496.66;;;18.68;45.36
69624;BME280;56843;52.020;5.670;2023-05-19T07:50:57;102491.88;;;18.65;45.41
69624;BME280;56843;52.020;5.670;2023-05-19T07:52:28;102492.56;;;18.62;45.56
69624;BME280;56843;52.020;5.670;2023-05-19T07:53:58;102489.75;;;18.58;45.37
69624;BME280;56843;52.020;5.670;2023-05-19T07:55:29;102488.50;;;18.56;45.32
69624;BME280;56843;52.020;5.670;2023-05-19T07:56:59;102490.59;;;18.50;45.58
69624;BME280;56843;52.020;5.670;2023-05-19T07:58:30;102490.94;;;18.49;45.67
69624;BME280;56843;52.020;5.670;2023-05-19T08:00:03;102493.19;;;18.47;45.70
69624;BME280;56843;52.020;5.670;2023-05-19T08:01:42;102486.53;;;18.44;45.58
69624;BME280;56843;52.020;5.670;2023-05-19T08:03:16;102484.53;;;18.41;45.61
69624;BME280;56843;52.020;5.670;2023-05-19T08:04:47;102487.53;;;18.40;45.80
69624;BME280;56843;52.020;5.670;2023-05-19T08:06:18;102489.44;;;18.39;45.71
69624;BME280;56843;52.020;5.670;2023-05-19T08:07:49;102482.47;;;18.38;45.80
69624;BME280;56843;52.020;5.670;2023-05-19T08:09:19;102477.06;;;18.38;45.93
69624;BME280;56843;52.020;5.670;2023-05-19T08:10:50;102478.19;;;18.37;45.55
69624;BME280;56843;52.020;5.670;2023-05-19T08:12:20;102476.63;;;18.36;45.72
69624;BME280;56843;52.020;5.670;2023-05-19T08:13:51;102469.94;;;18.33;45.81
69624;BME280;56843;52.020;5.670;2023-05-19T08:15:21;102470.75;;;18.34;45.86
69624;BME280;56843;52.020;5.670;2023-05-19T08:16:52;102461.84;;;18.33;45.89
69624;BME280;56843;52.020;5.670;2023-05-19T08:18:23;102467.25;;;18.33;46.00
69624;BME280;56843;52.020;5.670;2023-05-19T08:19:53;102470.75;;;18.34;45.83